createdAt,value
2023-05-12T00:02:23.456Z,97564.70
2023-05-12T00:04:54.812Z,97566.88
2023-05-12T00:07:25.871Z,97568.80
2023-05-12T00:09:57.117Z,97567.86
2023-05-12T00:12:28.529Z,97565.69
2023-05-12T00:14:59.493Z,97566.29
2023-05-12T00:17:30.543Z,97568.68
2023-05-12T00:20:01.607Z,97565.33
2023-05-12T00:22:34.261Z,97564.80
2023-05-12T00:25:06.038Z,97564.89
2023-05-12T00:27:37.014Z,97565.81
2023-05-12T00:30:10.528Z,97568.82
2023-05-12T00:32:41.592Z,97570.27
2023-05-12T00:35:13.227Z,97569.39
2023-05-12T00:37:44.290Z,97568.06
2023-05-12T00:40:16.181Z,97568.98
2023-05-12T00:42:47.303Z,97569.74
2023-05-12T00:45:18.265Z,97572.55
2023-05-12T00:47:50.664Z,97571.96
2023-05-12T00:50:22.336Z,97573.28
2023-05-12T00:52:53.847Z,97573.65
2023-05-12T00:55:25.324Z,97574.58
2023-05-12T00:57:56.619Z,97577.61
2023-05-12T01:00:27.704Z,97574.48
2023-05-12T01:02:59.609Z,97573.36
2023-05-12T01:05:37.015Z,97574.35
2023-05-12T01:08:09.495Z,97576.95
2023-05-12T01:10:46.357Z,97571.80
2023-05-12T01:13:17.476Z,97574.50
2023-05-12T01:15:50.618Z,97575.38
2023-05-12T01:18:23.047Z,97577.26
2023-05-12T01:20:54.885Z,97573.36
2023-05-12T01:23:35.812Z,97572.16
2023-05-12T01:26:09.896Z,97574.30
2023-05-12T01:28:42.402Z,97576.67
2023-05-12T01:31:13.629Z,97583.13
2023-05-12T01:33:45.410Z,97578.79
2023-05-12T01:36:16.893Z,97579.30
2023-05-12T01:38:47.933Z,97579.73
2023-05-12T01:41:18.916Z,97578.58
2023-05-12T01:43:50.077Z,97579.65
2023-05-12T01:46:21.141Z,97579.88
2023-05-12T01:48:52.119Z,97580.21
2023-05-12T01:51:23.133Z,97577.79
2023-05-12T01:53:54.129Z,97578.78
2023-05-12T01:56:23.400Z,97577.85
2023-05-12T01:58:54.282Z,97576.73
2023-05-12T02:01:28.845Z,97578.91
2023-05-12T02:04:00.630Z,97583.71
2023-05-12T02:06:32.650Z,97582.26
2023-05-12T02:09:03.995Z,97582.55
2023-05-12T02:11:34.937Z,97583.14
2023-05-12T02:14:06.675Z,97584.27
2023-05-12T02:16:37.772Z,97586.18
2023-05-12T02:19:09.766Z,97587.07
2023-05-12T02:21:41.042Z,97585.34
2023-05-12T02:24:14.212Z,97587.14
2023-05-12T02:26:46.044Z,97588.55
2023-05-12T02:29:17.050Z,97590.77
2023-05-12T02:31:48.290Z,97590.75
2023-05-12T02:34:19.263Z,97590.73
2023-05-12T02:36:50.559Z,97591.41
2023-05-12T02:39:21.990Z,97588.88
2023-05-12T02:41:52.936Z,97590.38
2023-05-12T02:44:24.004Z,97590.27
2023-05-12T02:46:55.054Z,97594.52
2023-05-12T02:49:26.048Z,97595.20
2023-05-12T02:51:57.327Z,97598.23
2023-05-12T02:54:28.378Z,97598.23
2023-05-12T02:57:00.042Z,97599.92
2023-05-12T02:59:31.195Z,97599.13
2023-05-12T03:02:02.171Z,97596.75
2023-05-12T03:04:33.666Z,97600.95
2023-05-12T03:07:04.772Z,97605.58
2023-05-12T03:09:35.686Z,97601.54
2023-05-12T03:12:08.658Z,97601.55
2023-05-12T03:14:39.640Z,97602.02
2023-05-12T03:17:08.988Z,97603.32
2023-05-12T03:19:40.170Z,97603.87
2023-05-12T03:22:12.388Z,97604.76
2023-05-12T03:24:43.637Z,97604.77
2023-05-12T03:27:14.976Z,97598.55
2023-05-12T03:29:46.252Z,97601.13
2023-05-12T03:32:17.575Z,97600.40
2023-05-12T03:34:48.643Z,97603.28
2023-05-12T03:37:18.022Z,97603.75
2023-05-12T03:39:47.553Z,97607.83
2023-05-12T03:42:19.312Z,97609.25
2023-05-12T03:44:50.304Z,97609.62
2023-05-12T03:47:21.714Z,97608.92
2023-05-12T03:49:52.877Z,97611.71
2023-05-12T03:52:23.697Z,97610.08
2023-05-12T03:54:55.208Z,97611.95
2023-05-12T03:57:26.165Z,97610.69
2023-05-12T03:59:57.920Z,97611.11
2023-05-12T04:02:29.028Z,97610.35
2023-05-12T04:05:00.405Z,97610.63
2023-05-12T04:07:31.508Z,97611.69
2023-05-12T04:10:02.918Z,97613.20
2023-05-12T04:12:34.511Z,97613.17
2023-05-12T04:15:06.526Z,97615.95
2023-05-12T04:17:37.822Z,97619.16
2023-05-12T04:20:10.779Z,97623.80
2023-05-12T04:22:41.770Z,97623.48
2023-05-12T04:25:11.502Z,97627.77
2023-05-12T04:27:42.551Z,97629.83
2023-05-12T04:30:14.492Z,97631.25
2023-05-12T04:32:45.469Z,97629.73
2023-05-12T04:35:16.746Z,97631.60
2023-05-12T04:37:47.653Z,97640.23
2023-05-12T04:40:19.241Z,97642.02
2023-05-12T04:42:50.611Z,97639.64
2023-05-12T04:45:22.102Z,97638.95
2023-05-12T04:47:53.041Z,97641.85
2023-05-12T04:50:24.368Z,97642.23
2023-05-12T04:52:55.532Z,97635.66
2023-05-12T04:55:27.116Z,97636.55
2023-05-12T04:57:58.226Z,97640.00
2023-05-12T05:00:29.558Z,97637.61
2023-05-12T05:03:00.668Z,97636.52
2023-05-12T05:05:32.041Z,97633.42
2023-05-12T05:08:03.331Z,97639.17
2023-05-12T05:10:34.309Z,97635.72
2023-05-12T05:13:05.311Z,97635.55
2023-05-12T05:15:36.303Z,97635.87
2023-05-12T05:18:07.757Z,97634.30
2023-05-12T05:20:40.964Z,97636.69
2023-05-12T05:23:14.727Z,97636.77
2023-05-12T05:25:45.933Z,97635.51
2023-05-12T05:28:17.030Z,97639.11
2023-05-12T05:30:48.142Z,97634.59
2023-05-12T05:33:19.153Z,97637.15
2023-05-12T05:35:50.930Z,97642.06
2023-05-12T05:38:21.834Z,97642.60
2023-05-12T05:40:54.554Z,97643.06
2023-05-12T05:43:25.954Z,97639.53
2023-05-12T05:45:58.280Z,97639.98
2023-05-12T05:48:29.567Z,97647.30
2023-05-12T05:51:00.582Z,97656.20
2023-05-12T05:53:31.596Z,97653.60
2023-05-12T05:56:02.595Z,97652.05
2023-05-12T05:58:33.537Z,97655.77
2023-05-12T06:01:05.227Z,97656.58
2023-05-12T06:03:36.276Z,97657.61
2023-05-12T06:06:08.488Z,97659.83
2023-05-12T06:08:39.389Z,97663.44
2023-05-12T06:11:10.461Z,97664.81
2023-05-12T06:13:41.451Z,97666.44
2023-05-12T06:16:12.563Z,97668.78
2023-05-12T06:18:43.611Z,97666.80
2023-05-12T06:21:14.558Z,97669.39
2023-05-12T06:23:45.590Z,97670.80
2023-05-12T06:26:17.125Z,97674.95
2023-05-12T06:28:48.513Z,97676.11
2023-05-12T06:31:19.629Z,97674.42
2023-05-12T06:33:50.827Z,97673.91
2023-05-12T06:36:22.743Z,97680.16
2023-05-12T06:38:54.018Z,97681.79
2023-05-12T06:41:25.400Z,97684.36
2023-05-12T06:43:56.501Z,97688.23
2023-05-12T06:46:27.622Z,97689.37
2023-05-12T06:49:00.312Z,97687.17
2023-05-12T06:51:31.496Z,97691.00
2023-05-12T06:54:02.417Z,97693.51
2023-05-12T06:56:33.463Z,97692.52
2023-05-12T06:59:04.800Z,97694.86
2023-05-12T07:01:36.031Z,97697.58
2023-05-12T07:04:07.981Z,97697.96
2023-05-12T07:06:38.957Z,97698.55
2023-05-12T07:09:10.101Z,97699.20
2023-05-12T07:11:41.320Z,97699.88
2023-05-12T07:14:12.462Z,97700.64
2023-05-12T07:16:43.650Z,97698.17
2023-05-12T07:19:14.661Z,97691.95
2023-05-12T07:21:46.060Z,97694.23
2023-05-12T07:24:17.709Z,97691.71
2023-05-12T07:26:48.900Z,97693.75
2023-05-12T07:29:19.827Z,97692.50
2023-05-12T07:31:50.936Z,97692.31
2023-05-12T07:34:22.321Z,97693.59
2023-05-12T07:36:53.488Z,97692.65
2023-05-12T07:39:25.096Z,97691.64
2023-05-12T07:41:56.308Z,97692.11
2023-05-12T07:44:27.699Z,97685.71
2023-05-12T07:46:58.796Z,97687.79
2023-05-12T07:49:29.973Z,97687.37
2023-05-12T07:52:01.153Z,97691.84
2023-05-12T07:54:32.550Z,97691.30
2023-05-12T07:57:03.550Z,97692.25
2023-05-12T07:59:34.990Z,97693.93
2023-05-12T08:02:06.644Z,97692.89
2023-05-12T08:04:37.806Z,97693.73
2023-05-12T08:07:08.973Z,97689.20
2023-05-12T08:09:39.946Z,97685.98
2023-05-12T08:12:11.465Z,97687.45
2023-05-12T08:14:42.420Z,97688.56
2023-05-12T08:17:13.609Z,97687.23
2023-05-12T08:19:45.019Z,97683.48
2023-05-12T08:22:16.427Z,97678.08
2023-05-12T08:24:48.280Z,97680.44
2023-05-12T08:27:19.321Z,97683.59
2023-05-12T08:29:50.352Z,97687.52
2023-05-12T08:32:21.454Z,97685.35
2023-05-12T08:34:52.498Z,97688.50
2023-05-12T08:37:23.695Z,97689.14
2023-05-12T08:39:54.952Z,97686.41
2023-05-12T08:42:43.583Z,97688.98
2023-05-12T08:45:15.705Z,97689.33
2023-05-12T08:47:47.410Z,97690.75
2023-05-12T08:50:22.624Z,97693.02
2023-05-12T08:52:54.425Z,97690.98
2023-05-12T08:55:31.839Z,97689.30
2023-05-12T08:58:06.735Z,97690.60
2023-05-12T09:00:40.224Z,97688.28
2023-05-12T09:03:13.967Z,97682.02
2023-05-12T09:05:46.446Z,97683.48
2023-05-12T09:08:18.228Z,97682.28
2023-05-12T09:10:50.599Z,97679.21
2023-05-12T09:13:25.212Z,97669.77
2023-05-12T09:15:58.990Z,97680.80
2023-05-12T09:18:44.014Z,97674.80
2023-05-12T09:21:15.503Z,97673.77
2023-05-12T09:23:57.222Z,97667.75
2023-05-12T09:26:29.763Z,97665.42
2023-05-12T09:29:08.889Z,97665.88
2023-05-12T09:31:40.536Z,97662.15
2023-05-12T09:34:12.266Z,97656.12
2023-05-12T09:36:43.373Z,97661.83
2023-05-12T09:39:14.609Z,97657.76
2023-05-12T09:41:45.811Z,97654.39
2023-05-12T09:44:18.244Z,97658.48
2023-05-12T09:46:49.997Z,97658.30
2023-05-12T09:49:26.033Z,97662.63
2023-05-12T09:51:59.039Z,97662.34
2023-05-12T09:54:32.152Z,97666.89
2023-05-12T09:57:07.192Z,97664.93
2023-05-12T09:59:40.997Z,97661.94
2023-05-12T10:02:16.909Z,97664.05
2023-05-12T10:04:51.543Z,97664.86
2023-05-12T10:07:27.601Z,97661.69
2023-05-12T10:10:01.047Z,97655.77
2023-05-12T10:12:32.281Z,97653.63
2023-05-12T10:15:03.953Z,97648.31
2023-05-12T10:17:36.373Z,97644.80
2023-05-12T10:20:09.994Z,97646.00
2023-05-12T10:22:43.406Z,97644.65
2023-05-12T10:25:15.148Z,97646.55
2023-05-12T10:27:47.909Z,97639.54
2023-05-12T10:30:19.604Z,97634.07
2023-05-12T10:32:51.064Z,97635.69
2023-05-12T10:35:32.522Z,97639.50
2023-05-12T10:38:08.681Z,97641.04
2023-05-12T10:40:50.584Z,97644.79
2023-05-12T10:43:24.967Z,97640.33
2023-05-12T10:46:16.918Z,97645.74
2023-05-12T10:48:57.136Z,97645.30
2023-05-12T10:51:29.901Z,97638.95
2023-05-12T10:54:02.267Z,97643.79
2023-05-12T10:56:45.473Z,97646.10
2023-05-12T10:59:19.223Z,97643.77
2023-05-12T11:02:06.616Z,97642.64
2023-05-12T11:04:44.468Z,97641.70
2023-05-12T11:07:18.765Z,97643.02
2023-05-12T11:09:58.607Z,97642.35
2023-05-12T11:12:33.762Z,97644.09
2023-05-12T11:15:06.512Z,97643.20
2023-05-12T11:17:41.692Z,97645.38
2023-05-12T11:20:30.929Z,97649.70
2023-05-12T11:23:04.308Z,97646.36
2023-05-12T11:25:35.541Z,97645.94
2023-05-12T11:28:12.151Z,97645.12
2023-05-12T11:30:49.124Z,97647.70
2023-05-12T11:33:23.257Z,97649.61
2023-05-12T11:35:54.417Z,97651.77
2023-05-12T11:38:27.455Z,97648.93
2023-05-12T11:40:58.423Z,97657.20
2023-05-12T11:43:31.114Z,97653.52
2023-05-12T11:46:02.270Z,97659.34
2023-05-12T11:48:59.453Z,97659.93
2023-05-12T11:51:30.947Z,97666.02
2023-05-12T11:54:01.965Z,97663.49
2023-05-12T11:56:33.014Z,97663.83
2023-05-12T11:59:04.611Z,97662.20
2023-05-12T12:01:46.362Z,97664.58
2023-05-12T12:04:18.110Z,97665.14
2023-05-12T12:06:49.063Z,97663.63
2023-05-12T12:09:20.116Z,97667.20
2023-05-12T12:11:51.165Z,97671.80
2023-05-12T12:14:22.567Z,97668.93
2023-05-12T12:16:53.725Z,97667.27
2023-05-12T12:19:24.941Z,97674.19
2023-05-12T12:21:56.194Z,97676.00
2023-05-12T12:24:27.587Z,97679.23
2023-05-12T12:26:58.647Z,97679.52
2023-05-12T12:29:30.239Z,97679.78
2023-05-12T12:32:01.343Z,97681.91
2023-05-12T12:34:32.943Z,97684.95
2023-05-12T12:37:06.827Z,97685.66
2023-05-12T12:39:38.138Z,97687.14
2023-05-12T12:42:09.561Z,97692.60
2023-05-12T12:44:40.490Z,97692.73
2023-05-12T12:47:11.545Z,97696.08
2023-05-12T12:49:42.549Z,97694.40
2023-05-12T12:52:13.656Z,97693.32
2023-05-12T12:54:44.650Z,97693.98
2023-05-12T12:57:15.550Z,97695.98
2023-05-12T12:59:46.673Z,97695.80
2023-05-12T13:02:17.743Z,97697.64
2023-05-12T13:04:48.756Z,97696.77
2023-05-12T13:07:19.790Z,97695.88
2023-05-12T13:09:50.844Z,97697.77
2023-05-12T13:12:22.238Z,97694.45
2023-05-12T13:14:53.324Z,97696.95
2023-05-12T13:17:24.855Z,97701.46
2023-05-12T13:19:56.138Z,97696.86
2023-05-12T13:22:27.620Z,97697.71
2023-05-12T13:24:59.017Z,97698.80
2023-05-12T13:27:30.207Z,97696.36
2023-05-12T13:30:01.394Z,97698.95
2023-05-12T13:32:34.040Z,97703.06
2023-05-12T13:35:05.406Z,97701.16
2023-05-12T13:37:37.510Z,97698.50
2023-05-12T13:40:10.733Z,97703.46
2023-05-12T13:42:41.604Z,97704.48
2023-05-12T13:45:14.042Z,97704.89
2023-05-12T13:47:45.064Z,97706.15
2023-05-12T13:50:16.367Z,97707.23
2023-05-12T13:52:48.425Z,97707.52
2023-05-12T13:55:21.701Z,97716.11
2023-05-12T13:57:52.984Z,97717.67
2023-05-12T14:00:27.225Z,97726.20
2023-05-12T14:02:58.815Z,97724.96
2023-05-12T14:05:29.840Z,97727.81
2023-05-12T14:08:01.018Z,97730.73
2023-05-12T14:10:35.393Z,97731.62
2023-05-12T14:13:08.537Z,97733.75
2023-05-12T14:15:48.520Z,97730.45
2023-05-12T14:18:21.036Z,97736.34
2023-05-12T14:20:52.521Z,97729.33
2023-05-12T14:23:23.546Z,97723.50
2023-05-12T14:25:55.593Z,97718.09
2023-05-12T14:28:27.096Z,97714.69
2023-05-12T14:30:58.189Z,97713.14
2023-05-12T14:33:29.386Z,97710.80
2023-05-12T14:36:07.135Z,97709.48
2023-05-12T14:38:38.665Z,97708.46
2023-05-12T14:41:09.948Z,97708.55
2023-05-12T14:43:41.112Z,97710.88
2023-05-12T14:46:12.139Z,97711.69
2023-05-12T14:48:43.226Z,97714.19
2023-05-12T14:51:14.245Z,97711.17
2023-05-12T14:53:45.333Z,97713.84
2023-05-12T14:56:16.303Z,97712.04
2023-05-12T14:58:47.593Z,97709.02
2023-05-12T15:01:18.566Z,97707.05
2023-05-12T15:03:49.943Z,97709.25
2023-05-12T15:06:20.863Z,97700.06
2023-05-12T15:08:52.208Z,97697.35
2023-05-12T15:11:23.182Z,97698.80
2023-05-12T15:13:54.670Z,97696.91
2023-05-12T15:16:28.218Z,97697.89
2023-05-12T15:18:59.290Z,97695.64
2023-05-12T15:21:30.917Z,97692.65
2023-05-12T15:24:02.196Z,97694.76
2023-05-12T15:26:34.725Z,97694.69
2023-05-12T15:29:07.412Z,97695.98
2023-05-12T15:31:38.727Z,97696.77
2023-05-12T15:34:10.110Z,97696.67
2023-05-12T15:36:41.269Z,97700.87
2023-05-12T15:39:12.124Z,97698.30
2023-05-12T15:41:43.137Z,97697.75
2023-05-12T15:44:14.024Z,97693.35
2023-05-12T15:46:45.209Z,97695.39
2023-05-12T15:49:16.395Z,97693.39
2023-05-12T15:51:47.309Z,97695.77
2023-05-12T15:54:18.543Z,97690.73
2023-05-12T15:56:50.721Z,97692.80
2023-05-12T15:59:23.354Z,97692.00
2023-05-12T16:01:55.427Z,97689.23
2023-05-12T16:04:29.741Z,97688.95
2023-05-12T16:07:01.070Z,97688.17
2023-05-12T16:09:32.557Z,97688.19
2023-05-12T16:12:03.802Z,97689.67
2023-05-12T16:14:35.469Z,97693.27
2023-05-12T16:17:07.978Z,97693.56
2023-05-12T16:19:39.329Z,97693.30
2023-05-12T16:22:11.635Z,97696.57
2023-05-12T16:24:43.033Z,97695.45
2023-05-12T16:27:15.314Z,97694.73
2023-05-12T16:29:49.811Z,97691.30
2023-05-12T16:32:23.470Z,97692.33
2023-05-12T16:34:54.567Z,97693.38
2023-05-12T16:37:26.680Z,97694.77
2023-05-12T16:39:58.263Z,97693.42
2023-05-12T16:42:29.405Z,97694.64
2023-05-12T16:45:00.374Z,97697.86
2023-05-12T16:47:34.880Z,97695.73
2023-05-12T16:50:06.562Z,97700.60
2023-05-12T16:52:47.970Z,97701.58
2023-05-12T16:55:19.520Z,97705.77
2023-05-12T16:57:51.116Z,97702.69
2023-05-12T17:00:22.914Z,97703.44
2023-05-12T17:02:54.167Z,97705.12
2023-05-12T17:05:25.626Z,97702.00
2023-05-12T17:07:56.712Z,97701.70
2023-05-12T17:10:27.901Z,97698.17
2023-05-12T17:12:59.082Z,97699.20
2023-05-12T17:15:30.500Z,97695.95
2023-05-12T17:18:01.687Z,97701.03
2023-05-12T17:20:34.461Z,97702.23
2023-05-12T17:23:05.786Z,97702.73
2023-05-12T17:25:37.716Z,97706.67
2023-05-12T17:28:08.866Z,97708.45
2023-05-12T17:30:40.017Z,97710.21
2023-05-12T17:33:11.429Z,97712.53
2023-05-12T17:35:42.776Z,97713.50
2023-05-12T17:38:13.993Z,97717.34
2023-05-12T17:40:45.009Z,97715.61
2023-05-12T17:43:16.143Z,97720.28
2023-05-12T17:45:47.209Z,97716.86
2023-05-12T17:48:18.746Z,97724.17
2023-05-12T17:50:49.961Z,97723.05
2023-05-12T17:53:21.606Z,97726.37
2023-05-12T17:55:53.010Z,97726.67
2023-05-12T17:58:24.768Z,97729.44
2023-05-12T18:00:55.858Z,97737.09
2023-05-12T18:03:27.077Z,97745.35
2023-05-12T18:05:58.719Z,97742.93
2023-05-12T18:08:29.869Z,97742.83
2023-05-12T18:11:03.650Z,97745.11
2023-05-12T18:13:35.122Z,97750.30
2023-05-12T18:16:08.994Z,97751.13
2023-05-12T18:18:48.845Z,97753.30
2023-05-12T18:21:19.933Z,97756.36
2023-05-12T18:23:50.940Z,97755.71
2023-05-12T18:26:22.033Z,97760.60
2023-05-12T18:28:53.100Z,97765.09
2023-05-12T18:31:24.249Z,97770.92
2023-05-12T18:33:56.237Z,97772.80
2023-05-12T18:36:28.346Z,97778.20
2023-05-12T18:38:59.569Z,97785.71
2023-05-12T18:41:31.483Z,97788.38
2023-05-12T18:44:02.472Z,97794.86
2023-05-12T18:46:33.597Z,97796.65
2023-05-12T18:49:04.641Z,97804.45
2023-05-12T18:51:36.552Z,97809.00
2023-05-12T18:54:07.792Z,97809.11
2023-05-12T18:56:38.950Z,97812.09
2023-05-12T18:59:09.948Z,97814.98
2023-05-12T19:01:41.361Z,97818.65
2023-05-12T19:04:12.733Z,97818.90
2023-05-12T19:06:44.644Z,97824.27
2023-05-12T19:09:15.841Z,97831.02
2023-05-12T19:11:47.271Z,97838.37
2023-05-12T19:14:18.372Z,97850.73
2023-05-12T19:16:50.152Z,97857.69
2023-05-12T19:19:22.073Z,97868.89
2023-05-12T19:21:53.424Z,97881.98
2023-05-12T19:24:27.133Z,97890.55
2023-05-12T19:26:58.748Z,97891.67
2023-05-12T19:29:29.908Z,97895.10
2023-05-12T19:32:01.111Z,97899.09
2023-05-12T19:34:32.662Z,97899.23
2023-05-12T19:37:03.675Z,97903.68
2023-05-12T19:39:35.337Z,97901.34
2023-05-12T19:42:07.322Z,97905.91
2023-05-12T19:44:38.332Z,97908.90
2023-05-12T19:47:09.576Z,97912.09
2023-05-12T19:49:41.146Z,97911.31
2023-05-12T19:52:12.357Z,97909.52
2023-05-12T19:54:43.497Z,97905.65
2023-05-12T19:57:14.628Z,97906.15
2023-05-12T19:59:45.868Z,97911.90
2023-05-12T20:02:17.922Z,97919.64
2023-05-12T20:04:49.340Z,97920.73
2023-05-12T20:07:21.041Z,97922.62
2023-05-12T20:09:52.008Z,97926.80
2023-05-12T20:12:23.367Z,97932.23
2023-05-12T20:14:54.587Z,97936.80
2023-05-12T20:17:25.775Z,97938.11
2023-05-12T20:19:57.147Z,97936.77
2023-05-12T20:22:28.490Z,97943.52
2023-05-12T20:25:04.263Z,97948.79
2023-05-12T20:27:35.869Z,97947.38
2023-05-12T20:30:08.812Z,97945.02
2023-05-12T20:32:39.974Z,97948.16
2023-05-12T20:35:12.037Z,97950.14
2023-05-12T20:37:43.130Z,97950.39
2023-05-12T20:40:15.624Z,97948.36
2023-05-12T20:42:48.140Z,97948.13
2023-05-12T20:45:19.891Z,97950.25
2023-05-12T20:47:51.388Z,97948.28
2023-05-12T20:50:23.788Z,97952.27
2023-05-12T20:52:54.874Z,97953.84
2023-05-12T20:55:27.082Z,97953.98
2023-05-12T20:57:58.199Z,97956.72
2023-05-12T21:00:29.172Z,97957.33
2023-05-12T21:03:02.820Z,97958.41
2023-05-12T21:05:34.137Z,97962.30
2023-05-12T21:08:05.816Z,97962.59
2023-05-12T21:10:39.357Z,97964.52
2023-05-12T21:13:10.670Z,97970.26
2023-05-12T21:15:41.683Z,97968.52
2023-05-12T21:18:13.399Z,97972.17
2023-05-12T21:20:44.501Z,97972.55
2023-05-12T21:23:15.626Z,97972.40
2023-05-12T21:25:46.657Z,97978.77
2023-05-12T21:28:18.249Z,97977.71
2023-05-12T21:30:49.253Z,97977.48
2023-05-12T21:33:20.359Z,97983.67
2023-05-12T21:35:51.415Z,97981.57
2023-05-12T21:38:22.894Z,97980.46
2023-05-12T21:40:55.001Z,97982.98
2023-05-12T21:43:25.954Z,97981.89
2023-05-12T21:45:56.904Z,97987.58
2023-05-12T21:48:28.048Z,97984.58
2023-05-12T21:51:03.558Z,97985.09
2023-05-12T21:53:34.530Z,97986.39
2023-05-12T21:56:06.334Z,97980.60
2023-05-12T21:58:37.419Z,97980.41
2023-05-12T22:01:08.726Z,97980.88
2023-05-12T22:03:39.974Z,97982.50
2023-05-12T22:06:12.043Z,97987.77
2023-05-12T22:08:43.548Z,97991.54
2023-05-12T22:11:15.035Z,97989.62
2023-05-12T22:13:46.347Z,97985.44
2023-05-12T22:16:18.576Z,97987.92
2023-05-12T22:18:51.266Z,97995.75
2023-05-12T22:21:22.515Z,97996.84
2023-05-12T22:23:53.802Z,97995.48
2023-05-12T22:26:25.116Z,97989.65
2023-05-12T22:28:56.288Z,97995.65
2023-05-12T22:31:27.493Z,98000.90
2023-05-12T22:33:58.676Z,98004.03
2023-05-12T22:36:29.602Z,98004.71
2023-05-12T22:39:01.481Z,97996.08
2023-05-12T22:41:33.163Z,97994.62
2023-05-12T22:44:04.498Z,97993.69
2023-05-12T22:46:35.934Z,97987.00
2023-05-12T22:49:07.106Z,97987.08
2023-05-12T22:51:38.332Z,97988.61
2023-05-12T22:54:09.430Z,97993.11
2023-05-12T22:56:40.418Z,97996.72
2023-05-12T22:59:11.671Z,97998.00
2023-05-12T23:01:42.787Z,98000.34
2023-05-12T23:04:14.083Z,98000.75
2023-05-12T23:06:43.574Z,97999.83
2023-05-12T23:09:14.859Z,97994.70
2023-05-12T23:11:46.680Z,97995.55
2023-05-12T23:14:17.725Z,97994.15
2023-05-12T23:16:48.058Z,97993.34
2023-05-12T23:19:18.956Z,97991.00
2023-05-12T23:21:50.003Z,97990.34
2023-05-12T23:24:21.711Z,97990.20
2023-05-12T23:26:52.897Z,97987.13
2023-05-12T23:29:22.298Z,97985.54
2023-05-12T23:31:53.861Z,97982.40
2023-05-12T23:34:24.995Z,97983.22
2023-05-12T23:36:56.281Z,97980.60
2023-05-12T23:39:27.412Z,97982.17
2023-05-12T23:41:58.653Z,97983.08
2023-05-12T23:44:29.843Z,97980.33
2023-05-12T23:47:01.168Z,97980.92
2023-05-12T23:49:32.180Z,97978.41
2023-05-12T23:52:01.560Z,97979.86
2023-05-12T23:54:33.962Z,97976.91
2023-05-12T23:57:03.877Z,97977.20
2023-05-12T23:59:34.912Z,97975.07
